KLM634 EGGW-EHAM
Flight info
| Callsign | KLM634 |
|---|---|
| Flight time | 0h 37m |
| Altitude | 25000 |
| Route | MATCH Q295 BRAIN M197 REDFA |
| Aircraft | A21N/M-SDE3FGHIRWY/LB1 |
Departure
| Time | 2026-05-07 16:22 |
|---|---|
| Airport | London Luton Airport (EGGW) |
Arrival
| Time | 2026-05-07 17:00 |
|---|---|
| Airport | Amsterdam Airport Schiphol (EHAM) |
| Time | Latitude | Longitude | Altitude | Speed | Heading |
|---|---|---|---|---|---|
| 2026-05-07 16:02 | 51.88023 | -0.37823 | 523 ft | 0 kts | 128° |
| 2026-05-07 16:06 | 51.88027 | -0.37832 | 523 ft | 2 kts | 128° |
| 2026-05-07 16:07 | 51.88036 | -0.37850 | 523 ft | 2 kts | 128° |
| 2026-05-07 16:07 | 51.88046 | -0.37870 | 523 ft | 1 kts | 141° |
| 2026-05-07 16:07 | 51.88060 | -0.37876 | 523 ft | 2 kts | 195° |
| 2026-05-07 16:07 | 51.88068 | -0.37870 | 523 ft | 0 kts | 224° |
| 2026-05-07 16:08 | 51.88072 | -0.37863 | 522 ft | 0 kts | 219° |
| 2026-05-07 16:11 | 51.88069 | -0.37867 | 523 ft | 1 kts | 218° |
| 2026-05-07 16:12 | 51.88055 | -0.37885 | 523 ft | 3 kts | 218° |
| 2026-05-07 16:12 | 51.88027 | -0.37920 | 523 ft | 7 kts | 218° |
| 2026-05-07 16:12 | 51.87973 | -0.37981 | 524 ft | 11 kts | 210° |
| 2026-05-07 16:12 | 51.87884 | -0.38005 | 524 ft | 14 kts | 168° |
| 2026-05-07 16:13 | 51.87807 | -0.37915 | 524 ft | 14 kts | 126° |
| 2026-05-07 16:13 | 51.87761 | -0.37773 | 523 ft | 14 kts | 115° |
| 2026-05-07 16:13 | 51.87718 | -0.37624 | 523 ft | 14 kts | 115° |
| 2026-05-07 16:13 | 51.87673 | -0.37503 | 523 ft | 10 kts | 138° |
| 2026-05-07 16:14 | 51.87623 | -0.37462 | 524 ft | 7 kts | 163° |
| 2026-05-07 16:14 | 51.87572 | -0.37458 | 524 ft | 7 kts | 191° |
| 2026-05-07 16:14 | 51.87522 | -0.37505 | 525 ft | 9 kts | 232° |
| 2026-05-07 16:14 | 51.87493 | -0.37618 | 525 ft | 12 kts | 253° |
| 2026-05-07 16:15 | 51.87467 | -0.37765 | 525 ft | 14 kts | 255° |
| 2026-05-07 16:15 | 51.87441 | -0.37910 | 524 ft | 13 kts | 254° |
| 2026-05-07 16:15 | 51.87416 | -0.38007 | 523 ft | 5 kts | 229° |
| 2026-05-07 16:15 | 51.87381 | -0.38052 | 522 ft | 5 kts | 209° |
| 2026-05-07 16:16 | 51.87367 | -0.38064 | 522 ft | 0 kts | 207° |
| 2026-05-07 16:19 | 51.87363 | -0.38067 | 522 ft | 1 kts | 207° |
| 2026-05-07 16:19 | 51.87343 | -0.38083 | 522 ft | 4 kts | 204° |
| 2026-05-07 16:19 | 51.87306 | -0.38102 | 521 ft | 6 kts | 192° |
| 2026-05-07 16:19 | 51.87259 | -0.38124 | 521 ft | 7 kts | 221° |
| 2026-05-07 16:20 | 51.87232 | -0.38218 | 518 ft | 11 kts | 268° |
| 2026-05-07 16:20 | 51.87233 | -0.38240 | 518 ft | 0 kts | 278° |
| 2026-05-07 16:20 | 51.87235 | -0.38263 | 518 ft | 4 kts | 282° |
| 2026-05-07 16:20 | 51.87215 | -0.38304 | 517 ft | 6 kts | 151° |
| 2026-05-07 16:21 | 51.87220 | -0.38248 | 518 ft | 5 kts | 72° |
| 2026-05-07 16:21 | 51.87224 | -0.38227 | 518 ft | 0 kts | 74° |
| 2026-05-07 16:22 | 51.87248 | -0.38088 | 521 ft | 48 kts | 75° |
| 2026-05-07 16:22 | 51.87421 | -0.37090 | 526 ft | 133 kts | 74° |
| 2026-05-07 16:22 | 51.87726 | -0.35343 | 802 ft | 176 kts | 75° |
| 2026-05-07 16:22 | 51.88063 | -0.33462 | 1762 ft | 178 kts | 75° |
| 2026-05-07 16:23 | 51.88386 | -0.31633 | 2826 ft | 172 kts | 76° |
| 2026-05-07 16:23 | 51.88710 | -0.29715 | 3457 ft | 186 kts | 76° |
| 2026-05-07 16:23 | 51.89063 | -0.27621 | 4028 ft | 204 kts | 76° |
| 2026-05-07 16:23 | 51.89458 | -0.25291 | 4567 ft | 226 kts | 76° |
| 2026-05-07 16:24 | 51.89629 | -0.22628 | 4937 ft | 254 kts | 98° |
| 2026-05-07 16:24 | 51.89022 | -0.19898 | 4989 ft | 262 kts | 126° |
| 2026-05-07 16:24 | 51.87665 | -0.17962 | 4998 ft | 262 kts | 154° |
| 2026-05-07 16:24 | 51.85912 | -0.17171 | 4992 ft | 262 kts | 170° |
| 2026-05-07 16:25 | 51.84105 | -0.16575 | 5133 ft | 269 kts | 166° |
| 2026-05-07 16:25 | 51.82302 | -0.15690 | 5973 ft | 274 kts | 161° |
| 2026-05-07 16:25 | 51.80553 | -0.14606 | 7129 ft | 272 kts | 158° |
| 2026-05-07 16:25 | 51.78807 | -0.13419 | 8150 ft | 274 kts | 157° |
| 2026-05-07 16:26 | 51.77080 | -0.12073 | 9067 ft | 279 kts | 147° |
| 2026-05-07 16:26 | 51.75789 | -0.09752 | 9911 ft | 286 kts | 118° |
| 2026-05-07 16:26 | 51.75275 | -0.06656 | 10688 ft | 295 kts | 92° |
| 2026-05-07 16:26 | 51.75387 | -0.04416 | 11032 ft | 307 kts | 83° |
| 2026-05-07 16:27 | 51.75835 | 0.00291 | 11657 ft | 330 kts | 82° |
| 2026-05-07 16:27 | 51.76176 | 0.04058 | 12073 ft | 348 kts | 83° |
| 2026-05-07 16:27 | 51.76517 | 0.08019 | 12456 ft | 366 kts | 83° |
| 2026-05-07 16:27 | 51.76861 | 0.12137 | 13076 ft | 375 kts | 83° |
| 2026-05-07 16:28 | 51.77205 | 0.16308 | 13859 ft | 379 kts | 83° |
| 2026-05-07 16:28 | 51.77549 | 0.20536 | 14615 ft | 383 kts | 83° |
| 2026-05-07 16:28 | 51.77896 | 0.24807 | 15323 ft | 387 kts | 83° |
| 2026-05-07 16:28 | 51.78246 | 0.29142 | 16011 ft | 392 kts | 83° |
| 2026-05-07 16:29 | 51.78597 | 0.33523 | 16707 ft | 396 kts | 83° |
| 2026-05-07 16:29 | 51.78952 | 0.37946 | 17389 ft | 400 kts | 83° |
| 2026-05-07 16:29 | 51.79308 | 0.42408 | 18043 ft | 405 kts | 83° |
| 2026-05-07 16:29 | 51.79668 | 0.46934 | 18675 ft | 409 kts | 83° |
| 2026-05-07 16:30 | 51.80028 | 0.51484 | 19395 ft | 411 kts | 83° |
| 2026-05-07 16:30 | 51.80385 | 0.56027 | 20244 ft | 409 kts | 83° |
| 2026-05-07 16:30 | 51.80739 | 0.60554 | 21059 ft | 407 kts | 83° |
| 2026-05-07 16:30 | 51.81169 | 0.65094 | 21649 ft | 412 kts | 81° |
| 2026-05-07 16:31 | 51.81780 | 0.69714 | 21886 ft | 425 kts | 77° |
| 2026-05-07 16:31 | 51.82499 | 0.74414 | 22115 ft | 437 kts | 77° |
| 2026-05-07 16:31 | 51.83255 | 0.79239 | 22327 ft | 448 kts | 76° |
| 2026-05-07 16:31 | 51.84090 | 0.84157 | 22528 ft | 459 kts | 75° |
| 2026-05-07 16:32 | 51.84995 | 0.89156 | 22713 ft | 469 kts | 74° |
| 2026-05-07 16:32 | 51.85926 | 0.94250 | 22886 ft | 478 kts | 74° |
| 2026-05-07 16:32 | 51.86876 | 0.99457 | 23048 ft | 487 kts | 74° |
| 2026-05-07 16:32 | 51.87842 | 1.04765 | 23320 ft | 492 kts | 74° |
| 2026-05-07 16:33 | 51.88800 | 1.10054 | 23815 ft | 491 kts | 74° |
| 2026-05-07 16:33 | 51.89755 | 1.15348 | 24369 ft | 489 kts | 74° |
| 2026-05-07 16:33 | 51.90704 | 1.20621 | 24872 ft | 488 kts | 74° |
| 2026-05-07 16:33 | 51.91648 | 1.25884 | 25057 ft | 488 kts | 74° |
| 2026-05-07 16:34 | 51.92590 | 1.31157 | 25057 ft | 491 kts | 74° |
| 2026-05-07 16:34 | 51.93535 | 1.36460 | 25058 ft | 492 kts | 74° |
| 2026-05-07 16:34 | 51.94479 | 1.41772 | 25061 ft | 492 kts | 74° |
| 2026-05-07 16:34 | 51.95420 | 1.47083 | 25064 ft | 492 kts | 74° |
| 2026-05-07 16:35 | 51.96360 | 1.52402 | 25066 ft | 492 kts | 74° |
| 2026-05-07 16:35 | 51.97297 | 1.57719 | 25067 ft | 492 kts | 74° |
| 2026-05-07 16:35 | 51.98229 | 1.63035 | 25064 ft | 492 kts | 74° |
| 2026-05-07 16:35 | 51.99166 | 1.68394 | 25064 ft | 492 kts | 75° |
| 2026-05-07 16:36 | 52.00042 | 1.73757 | 25070 ft | 492 kts | 76° |
| 2026-05-07 16:36 | 52.00873 | 1.79124 | 25070 ft | 492 kts | 77° |
| 2026-05-07 16:36 | 52.01691 | 1.84488 | 25072 ft | 492 kts | 77° |
| 2026-05-07 16:36 | 52.02511 | 1.89861 | 25072 ft | 491 kts | 77° |
| 2026-05-07 16:37 | 52.03333 | 1.95239 | 25072 ft | 491 kts | 76° |
| 2026-05-07 16:37 | 52.04154 | 2.00600 | 25072 ft | 491 kts | 76° |
| 2026-05-07 16:37 | 52.04975 | 2.05961 | 25075 ft | 491 kts | 76° |
| 2026-05-07 16:37 | 52.05796 | 2.11337 | 25073 ft | 491 kts | 76° |
| 2026-05-07 16:38 | 52.06614 | 2.16702 | 25078 ft | 491 kts | 76° |
| 2026-05-07 16:38 | 52.07430 | 2.22071 | 25074 ft | 491 kts | 76° |
| 2026-05-07 16:38 | 52.08244 | 2.27442 | 25075 ft | 491 kts | 76° |
| 2026-05-07 16:38 | 52.09055 | 2.32821 | 25074 ft | 491 kts | 76° |
| 2026-05-07 16:39 | 52.09863 | 2.38200 | 25074 ft | 491 kts | 76° |
| 2026-05-07 16:39 | 52.10725 | 2.43573 | 25078 ft | 491 kts | 73° |
| 2026-05-07 16:39 | 52.11857 | 2.48791 | 25078 ft | 492 kts | 68° |
| 2026-05-07 16:39 | 52.13295 | 2.53835 | 25078 ft | 492 kts | 62° |
| 2026-05-07 16:40 | 52.14958 | 2.58644 | 25077 ft | 490 kts | 59° |
| 2026-05-07 16:40 | 52.16693 | 2.63410 | 25077 ft | 492 kts | 58° |
| 2026-05-07 16:40 | 52.18446 | 2.68186 | 25078 ft | 492 kts | 59° |
| 2026-05-07 16:40 | 52.20203 | 2.72990 | 25078 ft | 492 kts | 59° |
| 2026-05-07 16:41 | 52.21946 | 2.77786 | 25077 ft | 492 kts | 59° |
| 2026-05-07 16:41 | 52.23678 | 2.82578 | 25074 ft | 492 kts | 60° |
| 2026-05-07 16:41 | 52.25405 | 2.87376 | 25080 ft | 491 kts | 60° |
| 2026-05-07 16:41 | 52.27124 | 2.92176 | 25011 ft | 485 kts | 60° |
| 2026-05-07 16:42 | 52.28806 | 2.96878 | 24597 ft | 475 kts | 60° |
| 2026-05-07 16:42 | 52.30453 | 3.01493 | 23794 ft | 472 kts | 60° |
| 2026-05-07 16:42 | 52.32088 | 3.06087 | 22967 ft | 469 kts | 60° |
| 2026-05-07 16:42 | 52.33710 | 3.10653 | 22152 ft | 461 kts | 60° |
| 2026-05-07 16:43 | 52.35283 | 3.15088 | 20994 ft | 448 kts | 60° |
| 2026-05-07 16:43 | 52.36814 | 3.19417 | 19854 ft | 437 kts | 59° |
| 2026-05-07 16:43 | 52.38314 | 3.23665 | 19195 ft | 429 kts | 59° |
| 2026-05-07 16:43 | 52.39788 | 3.27844 | 18568 ft | 423 kts | 59° |
| 2026-05-07 16:44 | 52.41246 | 3.31981 | 17925 ft | 418 kts | 59° |
| 2026-05-07 16:44 | 52.42683 | 3.36065 | 17316 ft | 413 kts | 59° |
| 2026-05-07 16:44 | 52.44039 | 3.40170 | 16676 ft | 410 kts | 64° |
| 2026-05-07 16:44 | 52.45083 | 3.44464 | 16034 ft | 406 kts | 71° |
| 2026-05-07 16:45 | 52.45823 | 3.48877 | 15432 ft | 401 kts | 76° |
| 2026-05-07 16:45 | 52.46459 | 3.53293 | 14811 ft | 397 kts | 76° |
| 2026-05-07 16:45 | 52.47071 | 3.57668 | 14187 ft | 394 kts | 76° |
| 2026-05-07 16:45 | 52.47678 | 3.62007 | 13569 ft | 390 kts | 76° |
| 2026-05-07 16:46 | 52.48284 | 3.66314 | 12975 ft | 387 kts | 77° |
| 2026-05-07 16:46 | 52.48893 | 3.70630 | 12363 ft | 383 kts | 77° |
| 2026-05-07 16:46 | 52.49495 | 3.74887 | 11771 ft | 379 kts | 77° |
| 2026-05-07 16:46 | 52.50079 | 3.79026 | 11299 ft | 368 kts | 77° |
| 2026-05-07 16:47 | 52.50635 | 3.82992 | 10777 ft | 344 kts | 77° |
| 2026-05-07 16:47 | 52.51152 | 3.86639 | 10554 ft | 314 kts | 77° |
| 2026-05-07 16:47 | 52.51621 | 3.89988 | 10354 ft | 289 kts | 78° |
| 2026-05-07 16:47 | 52.52051 | 3.93154 | 10228 ft | 280 kts | 77° |
| 2026-05-07 16:48 | 52.52314 | 3.96336 | 10097 ft | 275 kts | 92° |
| 2026-05-07 16:48 | 52.51957 | 3.99449 | 10067 ft | 285 kts | 110° |
| 2026-05-07 16:48 | 52.51230 | 4.02513 | 10075 ft | 289 kts | 112° |
| 2026-05-07 16:48 | 52.50462 | 4.05555 | 10080 ft | 289 kts | 113° |
| 2026-05-07 16:49 | 52.49695 | 4.08599 | 10091 ft | 289 kts | 112° |
| 2026-05-07 16:49 | 52.48935 | 4.11644 | 10088 ft | 290 kts | 112° |
| 2026-05-07 16:49 | 52.48177 | 4.14703 | 10077 ft | 289 kts | 112° |
| 2026-05-07 16:49 | 52.47423 | 4.17756 | 10058 ft | 289 kts | 112° |
| 2026-05-07 16:50 | 52.46669 | 4.20817 | 10024 ft | 290 kts | 112° |
| 2026-05-07 16:50 | 52.45917 | 4.23868 | 9899 ft | 288 kts | 112° |
| 2026-05-07 16:50 | 52.45165 | 4.26916 | 9793 ft | 287 kts | 112° |
| 2026-05-07 16:50 | 52.44415 | 4.29954 | 9682 ft | 287 kts | 112° |
| 2026-05-07 16:51 | 52.43669 | 4.32973 | 9547 ft | 286 kts | 113° |
| 2026-05-07 16:51 | 52.42654 | 4.35712 | 9243 ft | 282 kts | 137° |
| 2026-05-07 16:51 | 52.40963 | 4.37195 | 8798 ft | 279 kts | 168° |
| 2026-05-07 16:51 | 52.39058 | 4.37654 | 8439 ft | 276 kts | 172° |
| 2026-05-07 16:52 | 52.37168 | 4.38104 | 7954 ft | 278 kts | 171° |
| 2026-05-07 16:52 | 52.35242 | 4.38658 | 7354 ft | 284 kts | 168° |
| 2026-05-07 16:52 | 52.33296 | 4.39293 | 6722 ft | 286 kts | 167° |
| 2026-05-07 16:52 | 52.31378 | 4.39959 | 6142 ft | 277 kts | 167° |
| 2026-05-07 16:53 | 52.29533 | 4.40613 | 5677 ft | 265 kts | 166° |
| 2026-05-07 16:53 | 52.27753 | 4.41248 | 5228 ft | 260 kts | 166° |
| 2026-05-07 16:53 | 52.26071 | 4.42084 | 4796 ft | 248 kts | 154° |
| 2026-05-07 16:53 | 52.24603 | 4.43425 | 4439 ft | 236 kts | 147° |
| 2026-05-07 16:54 | 52.23239 | 4.44844 | 3982 ft | 231 kts | 145° |
| 2026-05-07 16:54 | 52.21951 | 4.46323 | 3599 ft | 221 kts | 133° |
| 2026-05-07 16:54 | 52.21265 | 4.48410 | 3276 ft | 204 kts | 104° |
| 2026-05-07 16:54 | 52.20900 | 4.50585 | 2883 ft | 195 kts | 103° |
| 2026-05-07 16:55 | 52.20907 | 4.52642 | 2592 ft | 173 kts | 72° |
| 2026-05-07 16:55 | 52.21397 | 4.54326 | 2272 ft | 159 kts | 59° |
| 2026-05-07 16:55 | 52.21651 | 4.54985 | 2116 ft | 153 kts | 56° |
| 2026-05-07 16:55 | 52.22170 | 4.56213 | 1984 ft | 139 kts | 55° |
| 2026-05-07 16:56 | 52.22701 | 4.57498 | 1972 ft | 132 kts | 56° |
| 2026-05-07 16:56 | 52.23188 | 4.58728 | 1969 ft | 127 kts | 57° |
| 2026-05-07 16:56 | 52.24122 | 4.61165 | 1770 ft | 126 kts | 57° |
| 2026-05-07 16:57 | 52.24583 | 4.62380 | 1597 ft | 126 kts | 57° |
| 2026-05-07 16:57 | 52.25046 | 4.63601 | 1428 ft | 126 kts | 56° |
| 2026-05-07 16:57 | 52.25512 | 4.64827 | 1261 ft | 128 kts | 57° |
| 2026-05-07 16:57 | 52.25989 | 4.66075 | 1092 ft | 129 kts | 58° |
| 2026-05-07 16:58 | 52.26465 | 4.67325 | 916 ft | 129 kts | 58° |
| 2026-05-07 16:58 | 52.26946 | 4.68587 | 741 ft | 129 kts | 57° |
| 2026-05-07 16:58 | 52.27427 | 4.69843 | 571 ft | 130 kts | 57° |
| 2026-05-07 16:58 | 52.27908 | 4.71102 | 399 ft | 131 kts | 56° |
| 2026-05-07 16:59 | 52.28390 | 4.72368 | 200 ft | 131 kts | 56° |
| 2026-05-07 16:59 | 52.28877 | 4.73635 | 43 ft | 132 kts | 56° |
| 2026-05-07 16:59 | 52.29340 | 4.74841 | -3 ft | 114 kts | 57° |
| 2026-05-07 16:59 | 52.29719 | 4.75830 | -3 ft | 89 kts | 56° |
| 2026-05-07 17:00 | 52.29961 | 4.76441 | -4 ft | 36 kts | 49° |
| 2026-05-07 17:00 | 52.30114 | 4.76614 | -4 ft | 22 kts | 27° |
| 2026-05-07 17:00 | 52.30182 | 4.76673 | -3 ft | 7 kts | 29° |
| 2026-05-07 17:00 | 52.30215 | 4.76702 | -4 ft | 5 kts | 28° |
| 2026-05-07 17:01 | 52.30249 | 4.76731 | -4 ft | 5 kts | 27° |
| 2026-05-07 17:01 | 52.30290 | 4.76741 | -3 ft | 6 kts | 354° |
| 2026-05-07 17:01 | 52.30339 | 4.76723 | -4 ft | 7 kts | 352° |
| 2026-05-07 17:01 | 52.30384 | 4.76760 | -4 ft | 8 kts | 53° |
| 2026-05-07 17:02 | 52.30417 | 4.76842 | -4 ft | 9 kts | 57° |
| 2026-05-07 17:02 | 52.30453 | 4.76933 | -3 ft | 9 kts | 58° |
| 2026-05-07 17:02 | 52.30491 | 4.77031 | -3 ft | 10 kts | 58° |
| 2026-05-07 17:02 | 52.30528 | 4.77090 | -3 ft | 6 kts | 344° |
| 2026-05-07 17:03 | 52.30575 | 4.77058 | -3 ft | 7 kts | 334° |
| 2026-05-07 17:03 | 52.30628 | 4.77052 | -3 ft | 8 kts | 31° |
| 2026-05-07 17:03 | 52.30648 | 4.77121 | -3 ft | 5 kts | 91° |
| 2026-05-07 17:03 | 52.30650 | 4.77182 | -3 ft | 3 kts | 71° |
| 2026-05-07 17:04 | 52.30670 | 4.77207 | -3 ft | 4 kts | 17° |
| 2026-05-07 17:04 | 52.30689 | 4.77212 | -3 ft | 2 kts | 5° |
| 2026-05-07 17:04 | 52.30702 | 4.77214 | -3 ft | 0 kts | 3° |